sensor_id;sensor_type;location;lat;lon;timestamp;P1;durP1;ratioP1;P2;durP2;ratioP2
8871;SDS011;4472;52.092;9.820;2023-04-06T00:01:13;6.67;;;5.60;;
8871;SDS011;4472;52.092;9.820;2023-04-06T00:04:00;8.80;;;5.40;;
8871;SDS011;4472;52.092;9.820;2023-04-06T00:06:47;8.87;;;5.50;;
8871;SDS011;4472;52.092;9.820;2023-04-06T00:09:34;8.77;;;5.70;;
8871;SDS011;4472;52.092;9.820;2023-04-06T00:12:22;6.37;;;5.20;;
8871;SDS011;4472;52.092;9.820;2023-04-06T00:15:11;10.10;;;6.77;;
8871;SDS011;4472;52.092;9.820;2023-04-06T00:17:58;8.20;;;6.23;;
8871;SDS011;4472;52.092;9.820;2023-04-06T00:20:45;8.23;;;6.10;;
8871;SDS011;4472;52.092;9.820;2023-04-06T00:23:32;9.67;;;6.00;;
8871;SDS011;4472;52.092;9.820;2023-04-06T00:26:20;8.33;;;5.77;;
8871;SDS011;4472;52.092;9.820;2023-04-06T00:29:07;8.03;;;6.00;;
8871;SDS011;4472;52.092;9.820;2023-04-06T00:31:56;7.63;;;5.73;;
8871;SDS011;4472;52.092;9.820;2023-04-06T00:34:43;8.60;;;6.10;;
8871;SDS011;4472;52.092;9.820;2023-04-06T00:37:30;8.30;;;5.87;;
8871;SDS011;4472;52.092;9.820;2023-04-06T00:40:18;9.10;;;6.23;;
8871;SDS011;4472;52.092;9.820;2023-04-06T00:43:05;10.23;;;6.40;;
8871;SDS011;4472;52.092;9.820;2023-04-06T00:45:54;9.83;;;6.33;;
8871;SDS011;4472;52.092;9.820;2023-04-06T00:48:43;7.80;;;6.00;;
8871;SDS011;4472;52.092;9.820;2023-04-06T00:51:30;8.73;;;6.03;;
8871;SDS011;4472;52.092;9.820;2023-04-06T00:54:17;7.43;;;6.67;;
8871;SDS011;4472;52.092;9.820;2023-04-06T00:57:05;10.30;;;6.73;;
8871;SDS011;4472;52.092;9.820;2023-04-06T00:59:52;8.60;;;6.73;;
8871;SDS011;4472;52.092;9.820;2023-04-06T01:02:39;9.37;;;7.43;;
8871;SDS011;4472;52.092;9.820;2023-04-06T01:05:28;11.03;;;7.10;;
8871;SDS011;4472;52.092;9.820;2023-04-06T01:08:15;9.93;;;7.40;;
8871;SDS011;4472;52.092;9.820;2023-04-06T01:11:03;11.47;;;7.83;;
8871;SDS011;4472;52.092;9.820;2023-04-06T01:13:50;9.87;;;6.97;;
8871;SDS011;4472;52.092;9.820;2023-04-06T01:16:37;10.43;;;7.97;;
8871;SDS011;4472;52.092;9.820;2023-04-06T01:19:24;10.70;;;6.90;;
8871;SDS011;4472;52.092;9.820;2023-04-06T01:22:15;10.07;;;7.17;;
8871;SDS011;4472;52.092;9.820;2023-04-06T01:25:02;11.13;;;7.50;;
8871;SDS011;4472;52.092;9.820;2023-04-06T01:27:50;10.03;;;6.87;;
8871;SDS011;4472;52.092;9.820;2023-04-06T01:30:37;9.60;;;7.07;;
8871;SDS011;4472;52.092;9.820;2023-04-06T01:33:24;9.43;;;6.70;;
8871;SDS011;4472;52.092;9.820;2023-04-06T01:36:11;10.47;;;6.90;;
8871;SDS011;4472;52.092;9.820;2023-04-06T01:39:00;13.30;;;7.13;;
8871;SDS011;4472;52.092;9.820;2023-04-06T01:41:47;11.37;;;7.83;;
8871;SDS011;4472;52.092;9.820;2023-04-06T01:44:35;14.03;;;7.90;;
8871;SDS011;4472;52.092;9.820;2023-04-06T01:47:22;9.90;;;7.70;;
8871;SDS011;4472;52.092;9.820;2023-04-06T01:50:09;9.47;;;7.60;;
8871;SDS011;4472;52.092;9.820;2023-04-06T01:52:57;8.70;;;7.63;;
8871;SDS011;4472;52.092;9.820;2023-04-06T01:55:45;8.57;;;6.57;;
8871;SDS011;4472;52.092;9.820;2023-04-06T01:58:33;11.00;;;7.13;;
8871;SDS011;4472;52.092;9.820;2023-04-06T02:01:20;9.53;;;7.10;;
8871;SDS011;4472;52.092;9.820;2023-04-06T02:04:08;11.27;;;7.27;;
8871;SDS011;4472;52.092;9.820;2023-04-06T02:06:55;12.93;;;7.90;;
8871;SDS011;4472;52.092;9.820;2023-04-06T02:09:42;10.50;;;7.10;;
8871;SDS011;4472;52.092;9.820;2023-04-06T02:12:31;10.80;;;7.57;;
8871;SDS011;4472;52.092;9.820;2023-04-06T02:15:18;9.20;;;7.47;;
8871;SDS011;4472;52.092;9.820;2023-04-06T02:18:05;10.63;;;7.63;;
8871;SDS011;4472;52.092;9.820;2023-04-06T02:20:53;12.23;;;7.50;;
8871;SDS011;4472;52.092;9.820;2023-04-06T02:23:41;10.33;;;7.13;;
8871;SDS011;4472;52.092;9.820;2023-04-06T02:26:28;12.53;;;7.80;;
8871;SDS011;4472;52.092;9.820;2023-04-06T02:29:16;8.83;;;6.83;;
8871;SDS011;4472;52.092;9.820;2023-04-06T02:32:04;12.23;;;7.73;;
8871;SDS011;4472;52.092;9.820;2023-04-06T02:34:51;10.77;;;6.83;;
8871;SDS011;4472;52.092;9.820;2023-04-06T02:37:38;10.57;;;7.30;;
8871;SDS011;4472;52.092;9.820;2023-04-06T02:40:26;9.80;;;7.50;;
8871;SDS011;4472;52.092;9.820;2023-04-06T02:43:13;10.13;;;8.20;;
8871;SDS011;4472;52.092;9.820;2023-04-06T02:46:02;10.53;;;7.77;;
8871;SDS011;4472;52.092;9.820;2023-04-06T02:48:49;11.33;;;7.77;;
8871;SDS011;4472;52.092;9.820;2023-04-06T02:51:36;9.60;;;7.33;;
8871;SDS011;4472;52.092;9.820;2023-04-06T02:54:23;11.13;;;8.20;;
8871;SDS011;4472;52.092;9.820;2023-04-06T02:57:11;10.30;;;7.80;;
8871;SDS011;4472;52.092;9.820;2023-04-06T02:59:58;9.43;;;7.30;;
8871;SDS011;4472;52.092;9.820;2023-04-06T03:02:46;8.10;;;7.30;;
8871;SDS011;4472;52.092;9.820;2023-04-06T03:05:34;11.27;;;7.07;;
8871;SDS011;4472;52.092;9.820;2023-04-06T03:08:21;8.03;;;6.77;;
8871;SDS011;4472;52.092;9.820;2023-04-06T03:11:08;8.73;;;7.10;;
8871;SDS011;4472;52.092;9.820;2023-04-06T03:13:55;11.63;;;6.97;;
8871;SDS011;4472;52.092;9.820;2023-04-06T03:16:43;10.43;;;7.20;;
8871;SDS011;4472;52.092;9.820;2023-04-06T03:19:31;10.03;;;7.07;;
8871;SDS011;4472;52.092;9.820;2023-04-06T03:22:19;11.80;;;7.90;;
8871;SDS011;4472;52.092;9.820;2023-04-06T03:25:06;9.57;;;7.17;;
8871;SDS011;4472;52.092;9.820;2023-04-06T03:27:54;9.03;;;7.03;;
8871;SDS011;4472;52.092;9.820;2023-04-06T03:30:41;10.77;;;7.73;;
8871;SDS011;4472;52.092;9.820;2023-04-06T03:33:28;9.80;;;7.10;;
8871;SDS011;4472;52.092;9.820;2023-04-06T03:36:17;7.80;;;6.63;;
8871;SDS011;4472;52.092;9.820;2023-04-06T03:39:04;8.60;;;6.80;;
8871;SDS011;4472;52.092;9.820;2023-04-06T03:41:51;11.43;;;7.07;;
8871;SDS011;4472;52.092;9.820;2023-04-06T03:44:39;8.53;;;7.20;;
8871;SDS011;4472;52.092;9.820;2023-04-06T03:47:26;11.20;;;7.30;;
8871;SDS011;4472;52.092;9.820;2023-04-06T03:50:13;12.23;;;7.87;;
8871;SDS011;4472;52.092;9.820;2023-04-06T03:53:02;11.60;;;8.90;;
8871;SDS011;4472;52.092;9.820;2023-04-06T03:55:49;9.30;;;7.27;;
8871;SDS011;4472;52.092;9.820;2023-04-06T03:58:36;7.83;;;7.00;;
8871;SDS011;4472;52.092;9.820;2023-04-06T04:01:24;11.37;;;7.63;;
8871;SDS011;4472;52.092;9.820;2023-04-06T04:04:11;12.20;;;7.73;;
8871;SDS011;4472;52.092;9.820;2023-04-06T04:06:58;10.73;;;7.67;;
8871;SDS011;4472;52.092;9.820;2023-04-06T04:09:47;12.43;;;7.80;;
8871;SDS011;4472;52.092;9.820;2023-04-06T04:12:34;12.53;;;8.37;;
8871;SDS011;4472;52.092;9.820;2023-04-06T04:15:21;10.00;;;8.40;;
8871;SDS011;4472;52.092;9.820;2023-04-06T04:18:08;12.60;;;8.17;;
8871;SDS011;4472;52.092;9.820;2023-04-06T04:20:56;9.70;;;7.43;;
8871;SDS011;4472;52.092;9.820;2023-04-06T04:23:43;11.07;;;8.20;;
8871;SDS011;4472;52.092;9.820;2023-04-06T04:26:32;9.33;;;7.87;;
8871;SDS011;4472;52.092;9.820;2023-04-06T04:29:19;9.63;;;8.07;;
8871;SDS011;4472;52.092;9.820;2023-04-06T04:32:07;14.77;;;8.70;;
8871;SDS011;4472;52.092;9.820;2023-04-06T04:34:55;8.30;;;7.37;;
8871;SDS011;4472;52.092;9.820;2023-04-06T04:37:42;12.00;;;8.17;;
8871;SDS011;4472;52.092;9.820;2023-04-06T04:40:29;10.83;;;7.40;;
8871;SDS011;4472;52.092;9.820;2023-04-06T04:43:18;10.93;;;7.57;;
8871;SDS011;4472;52.092;9.820;2023-04-06T04:46:05;10.80;;;7.37;;
8871;SDS011;4472;52.092;9.820;2023-04-06T04:48:52;8.90;;;7.27;;
8871;SDS011;4472;52.092;9.820;2023-04-06T04:51:39;9.83;;;7.43;;
8871;SDS011;4472;52.092;9.820;2023-04-06T04:54:27;9.80;;;7.10;;
8871;SDS011;4472;52.092;9.820;2023-04-06T04:57:14;10.47;;;7.50;;
8871;SDS011;4472;52.092;9.820;2023-04-06T05:00:03;9.03;;;6.83;;
8871;SDS011;4472;52.092;9.820;2023-04-06T05:02:51;9.07;;;8.00;;
8871;SDS011;4472;52.092;9.820;2023-04-06T05:05:38;8.63;;;7.67;;
8871;SDS011;4472;52.092;9.820;2023-04-06T05:08:25;8.63;;;7.73;;
8871;SDS011;4472;52.092;9.820;2023-04-06T05:11:12;10.13;;;7.73;;
8871;SDS011;4472;52.092;9.820;2023-04-06T05:14:00;10.40;;;8.20;;
8871;SDS011;4472;52.092;9.820;2023-04-06T05:16:49;9.83;;;7.73;;
8871;SDS011;4472;52.092;9.820;2023-04-06T05:19:36;12.17;;;8.77;;
8871;SDS011;4472;52.092;9.820;2023-04-06T05:22:23;21.00;;;12.83;;
8871;SDS011;4472;52.092;9.820;2023-04-06T05:25:10;11.77;;;7.07;;
8871;SDS011;4472;52.092;9.820;2023-04-06T05:27:58;11.57;;;7.93;;
8871;SDS011;4472;52.092;9.820;2023-04-06T05:30:45;7.90;;;6.40;;
8871;SDS011;4472;52.092;9.820;2023-04-06T05:33:33;8.97;;;6.40;;
8871;SDS011;4472;52.092;9.820;2023-04-06T05:36:21;8.80;;;7.70;;
8871;SDS011;4472;52.092;9.820;2023-04-06T05:39:08;12.97;;;8.70;;
8871;SDS011;4472;52.092;9.820;2023-04-06T05:41:55;18.23;;;11.73;;
8871;SDS011;4472;52.092;9.820;2023-04-06T05:44:42;52.20;;;24.23;;
8871;SDS011;4472;52.092;9.820;2023-04-06T05:47:30;32.37;;;16.47;;
8871;SDS011;4472;52.092;9.820;2023-04-06T05:50:18;11.97;;;8.00;;
8871;SDS011;4472;52.092;9.820;2023-04-06T05:53:06;14.00;;;8.57;;
8871;SDS011;4472;52.092;9.820;2023-04-06T05:55:53;14.97;;;9.57;;
8871;SDS011;4472;52.092;9.820;2023-04-06T05:58:40;9.83;;;7.90;;
8871;SDS011;4472;52.092;9.820;2023-04-06T06:01:28;11.17;;;8.77;;
8871;SDS011;4472;52.092;9.820;2023-04-06T06:04:15;7.37;;;6.57;;
8871;SDS011;4472;52.092;9.820;2023-04-06T06:07:04;11.00;;;8.43;;
8871;SDS011;4472;52.092;9.820;2023-04-06T06:09:51;14.43;;;9.97;;
8871;SDS011;4472;52.092;9.820;2023-04-06T06:12:39;19.07;;;11.03;;
8871;SDS011;4472;52.092;9.820;2023-04-06T06:15:26;16.83;;;9.97;;
8871;SDS011;4472;52.092;9.820;2023-04-06T06:18:13;29.83;;;13.90;;
8871;SDS011;4472;52.092;9.820;2023-04-06T06:21:00;42.60;;;20.10;;
8871;SDS011;4472;52.092;9.820;2023-04-06T06:23:49;18.37;;;11.03;;
8871;SDS011;4472;52.092;9.820;2023-04-06T06:26:36;6.53;;;5.87;;
8871;SDS011;4472;52.092;9.820;2023-04-06T06:29:24;9.00;;;6.57;;
8871;SDS011;4472;52.092;9.820;2023-04-06T06:32:12;9.33;;;6.87;;
8871;SDS011;4472;52.092;9.820;2023-04-06T06:34:59;7.23;;;6.40;;
8871;SDS011;4472;52.092;9.820;2023-04-06T06:37:46;9.97;;;7.33;;
8871;SDS011;4472;52.092;9.820;2023-04-06T06:40:35;8.70;;;6.77;;
8871;SDS011;4472;52.092;9.820;2023-04-06T06:43:22;10.93;;;6.57;;
8871;SDS011;4472;52.092;9.820;2023-04-06T06:46:09;8.97;;;6.33;;
8871;SDS011;4472;52.092;9.820;2023-04-06T06:48:58;10.43;;;7.30;;
8871;SDS011;4472;52.092;9.820;2023-04-06T06:51:45;8.40;;;6.97;;
8871;SDS011;4472;52.092;9.820;2023-04-06T06:54:32;8.67;;;6.07;;
8871;SDS011;4472;52.092;9.820;2023-04-06T06:57:21;8.13;;;6.40;;
8871;SDS011;4472;52.092;9.820;2023-04-06T07:00:09;7.30;;;6.60;;
8871;SDS011;4472;52.092;9.820;2023-04-06T07:02:58;13.80;;;7.77;;
8871;SDS011;4472;52.092;9.820;2023-04-06T07:05:46;8.63;;;6.73;;
8871;SDS011;4472;52.092;9.820;2023-04-06T07:08:35;8.23;;;6.40;;
8871;SDS011;4472;52.092;9.820;2023-04-06T07:11:22;7.37;;;6.30;;
8871;SDS011;4472;52.092;9.820;2023-04-06T07:14:11;10.57;;;7.13;;
8871;SDS011;4472;52.092;9.820;2023-04-06T07:16:58;10.30;;;6.40;;
8871;SDS011;4472;52.092;9.820;2023-04-06T07:19:45;8.40;;;6.10;;
8871;SDS011;4472;52.092;9.820;2023-04-06T07:22:33;7.40;;;6.67;;
8871;SDS011;4472;52.092;9.820;2023-04-06T07:25:20;9.17;;;6.80;;
8871;SDS011;4472;52.092;9.820;2023-04-06T07:28:07;7.40;;;6.70;;
8871;SDS011;4472;52.092;9.820;2023-04-06T07:30:56;7.40;;;6.50;;
8871;SDS011;4472;52.092;9.820;2023-04-06T07:33:43;8.20;;;5.87;;
8871;SDS011;4472;52.092;9.820;2023-04-06T07:36:30;8.80;;;6.47;;
8871;SDS011;4472;52.092;9.820;2023-04-06T07:39:17;7.13;;;5.53;;
8871;SDS011;4472;52.092;9.820;2023-04-06T07:42:05;8.87;;;6.13;;
8871;SDS011;4472;52.092;9.820;2023-04-06T07:44:52;11.27;;;6.53;;
8871;SDS011;4472;52.092;9.820;2023-04-06T07:47:41;8.00;;;6.27;;
8871;SDS011;4472;52.092;9.820;2023-04-06T07:50:28;8.87;;;6.60;;
8871;SDS011;4472;52.092;9.820;2023-04-06T07:53:15;7.17;;;6.40;;
8871;SDS011;4472;52.092;9.820;2023-04-06T07:56:03;9.33;;;6.10;;
8871;SDS011;4472;52.092;9.820;2023-04-06T07:58:50;8.17;;;6.20;;
8871;SDS011;4472;52.092;9.820;2023-04-06T08:01:37;7.90;;;5.97;;
8871;SDS011;4472;52.092;9.820;2023-04-06T08:04:26;7.97;;;6.37;;
8871;SDS011;4472;52.092;9.820;2023-04-06T08:07:13;11.47;;;6.80;;
8871;SDS011;4472;52.092;9.820;2023-04-06T08:10:01;7.73;;;6.33;;
8871;SDS011;4472;52.092;9.820;2023-04-06T08:12:48;7.83;;;6.40;;
8871;SDS011;4472;52.092;9.820;2023-04-06T08:15:35;11.97;;;8.70;;
8871;SDS011;4472;52.092;9.820;2023-04-06T08:18:22;8.57;;;6.27;;
8871;SDS011;4472;52.092;9.820;2023-04-06T08:21:11;7.23;;;5.63;;
8871;SDS011;4472;52.092;9.820;2023-04-06T08:23:58;9.13;;;6.47;;
8871;SDS011;4472;52.092;9.820;2023-04-06T08:26:46;9.27;;;6.40;;
8871;SDS011;4472;52.092;9.820;2023-04-06T08:29:34;7.10;;;5.30;;
8871;SDS011;4472;52.092;9.820;2023-04-06T08:32:21;14.77;;;9.43;;
8871;SDS011;4472;52.092;9.820;2023-04-06T08:35:08;8.37;;;6.27;;
8871;SDS011;4472;52.092;9.820;2023-04-06T08:37:57;8.53;;;5.93;;
8871;SDS011;4472;52.092;9.820;2023-04-06T08:40:45;7.17;;;5.77;;
8871;SDS011;4472;52.092;9.820;2023-04-06T08:43:33;10.80;;;6.10;;
8871;SDS011;4472;52.092;9.820;2023-04-06T08:46:28;8.27;;;6.13;;
8871;SDS011;4472;52.092;9.820;2023-04-06T08:49:16;9.03;;;6.37;;
8871;SDS011;4472;52.092;9.820;2023-04-06T08:52:05;6.17;;;5.57;;
8871;SDS011;4472;52.092;9.820;2023-04-06T08:54:55;7.00;;;5.60;;
8871;SDS011;4472;52.092;9.820;2023-04-06T08:57:42;8.07;;;6.40;;
8871;SDS011;4472;52.092;9.820;2023-04-06T09:00:30;7.57;;;5.47;;
8871;SDS011;4472;52.092;9.820;2023-04-06T09:03:17;8.57;;;6.37;;
8871;SDS011;4472;52.092;9.820;2023-04-06T09:06:06;8.47;;;5.77;;
8871;SDS011;4472;52.092;9.820;2023-04-06T09:08:54;8.20;;;6.33;;
8871;SDS011;4472;52.092;9.820;2023-04-06T09:11:44;6.23;;;5.07;;
8871;SDS011;4472;52.092;9.820;2023-04-06T09:14:33;7.87;;;5.73;;
8871;SDS011;4472;52.092;9.820;2023-04-06T09:17:22;8.80;;;5.37;;
8871;SDS011;4472;52.092;9.820;2023-04-06T09:20:10;6.00;;;5.40;;
8871;SDS011;4472;52.092;9.820;2023-04-06T09:22:58;7.87;;;5.37;;
8871;SDS011;4472;52.092;9.820;2023-04-06T09:25:45;7.70;;;6.47;;
8871;SDS011;4472;52.092;9.820;2023-04-06T09:28:42;7.00;;;5.50;;
8871;SDS011;4472;52.092;9.820;2023-04-06T09:31:31;14.10;;;10.37;;
8871;SDS011;4472;52.092;9.820;2023-04-06T09:34:21;19.63;;;9.27;;
8871;SDS011;4472;52.092;9.820;2023-04-06T09:37:12;16.27;;;9.90;;
8871;SDS011;4472;52.092;9.820;2023-04-06T09:40:04;29.50;;;17.53;;
8871;SDS011;4472;52.092;9.820;2023-04-06T09:42:52;10.90;;;8.03;;
8871;SDS011;4472;52.092;9.820;2023-04-06T09:45:44;11.60;;;6.33;;
8871;SDS011;4472;52.092;9.820;2023-04-06T09:48:33;9.20;;;7.00;;
8871;SDS011;4472;52.092;9.820;2023-04-06T09:51:21;9.77;;;6.80;;
8871;SDS011;4472;52.092;9.820;2023-04-06T09:54:11;8.00;;;6.27;;
8871;SDS011;4472;52.092;9.820;2023-04-06T09:57:04;7.40;;;6.50;;
8871;SDS011;4472;52.092;9.820;2023-04-06T09:59:57;7.30;;;6.13;;
8871;SDS011;4472;52.092;9.820;2023-04-06T10:02:56;7.07;;;6.30;;
8871;SDS011;4472;52.092;9.820;2023-04-06T10:05:50;10.83;;;6.80;;
8871;SDS011;4472;52.092;9.820;2023-04-06T10:08:44;8.00;;;6.80;;
8871;SDS011;4472;52.092;9.820;2023-04-06T10:11:34;11.03;;;7.07;;
8871;SDS011;4472;52.092;9.820;2023-04-06T10:14:21;7.23;;;6.50;;
8871;SDS011;4472;52.092;9.820;2023-04-06T10:17:09;10.07;;;6.80;;
8871;SDS011;4472;52.092;9.820;2023-04-06T10:19:59;9.40;;;6.17;;
8871;SDS011;4472;52.092;9.820;2023-04-06T10:22:51;8.83;;;6.97;;
8871;SDS011;4472;52.092;9.820;2023-04-06T10:25:51;7.00;;;6.30;;
8871;SDS011;4472;52.092;9.820;2023-04-06T10:28:41;9.93;;;7.07;;
8871;SDS011;4472;52.092;9.820;2023-04-06T10:31:28;10.50;;;6.27;;
8871;SDS011;4472;52.092;9.820;2023-04-06T10:34:33;9.13;;;6.77;;
8871;SDS011;4472;52.092;9.820;2023-04-06T10:37:21;13.27;;;5.40;;
8871;SDS011;4472;52.092;9.820;2023-04-06T10:40:17;8.97;;;6.10;;
8871;SDS011;4472;52.092;9.820;2023-04-06T10:43:08;8.57;;;6.07;;
8871;SDS011;4472;52.092;9.820;2023-04-06T10:45:57;9.33;;;5.80;;
8871;SDS011;4472;52.092;9.820;2023-04-06T10:48:46;9.43;;;7.30;;
8871;SDS011;4472;52.092;9.820;2023-04-06T10:51:37;7.07;;;6.33;;
8871;SDS011;4472;52.092;9.820;2023-04-06T10:54:25;11.13;;;6.77;;
8871;SDS011;4472;52.092;9.820;2023-04-06T10:57:13;9.70;;;6.50;;
8871;SDS011;4472;52.092;9.820;2023-04-06T11:00:00;11.20;;;8.43;;
8871;SDS011;4472;52.092;9.820;2023-04-06T11:02:47;10.43;;;8.03;;
8871;SDS011;4472;52.092;9.820;2023-04-06T11:05:35;9.53;;;8.10;;
8871;SDS011;4472;52.092;9.820;2023-04-06T11:08:24;10.37;;;8.83;;
8871;SDS011;4472;52.092;9.820;2023-04-06T11:11:12;15.50;;;8.53;;
8871;SDS011;4472;52.092;9.820;2023-04-06T11:14:01;15.37;;;9.60;;
8871;SDS011;4472;52.092;9.820;2023-04-06T11:16:48;11.27;;;8.93;;
8871;SDS011;4472;52.092;9.820;2023-04-06T11:19:36;9.73;;;8.37;;
8871;SDS011;4472;52.092;9.820;2023-04-06T11:22:23;12.50;;;7.90;;
8871;SDS011;4472;52.092;9.820;2023-04-06T11:25:12;9.70;;;8.63;;
8871;SDS011;4472;52.092;9.820;2023-04-06T11:28:01;8.30;;;7.47;;
8871;SDS011;4472;52.092;9.820;2023-04-06T11:30:49;9.53;;;7.73;;
8871;SDS011;4472;52.092;9.820;2023-04-06T11:33:36;9.20;;;8.17;;
8871;SDS011;4472;52.092;9.820;2023-04-06T11:36:26;9.23;;;8.23;;
8871;SDS011;4472;52.092;9.820;2023-04-06T11:39:18;9.40;;;8.40;;
8871;SDS011;4472;52.092;9.820;2023-04-06T11:42:08;11.27;;;8.50;;
8871;SDS011;4472;52.092;9.820;2023-04-06T11:44:56;11.33;;;8.63;;
8871;SDS011;4472;52.092;9.820;2023-04-06T11:47:44;10.53;;;8.20;;
8871;SDS011;4472;52.092;9.820;2023-04-06T11:50:32;10.73;;;8.17;;
8871;SDS011;4472;52.092;9.820;2023-04-06T11:53:20;15.17;;;9.27;;
8871;SDS011;4472;52.092;9.820;2023-04-06T11:56:07;12.97;;;8.87;;
8871;SDS011;4472;52.092;9.820;2023-04-06T11:58:56;13.40;;;8.70;;
8871;SDS011;4472;52.092;9.820;2023-04-06T12:01:45;9.50;;;8.33;;
8871;SDS011;4472;52.092;9.820;2023-04-06T12:04:32;10.03;;;8.00;;
8871;SDS011;4472;52.092;9.820;2023-04-06T12:07:20;10.53;;;8.40;;
8871;SDS011;4472;52.092;9.820;2023-04-06T12:10:07;10.13;;;7.87;;
8871;SDS011;4472;52.092;9.820;2023-04-06T12:12:55;8.90;;;7.93;;
8871;SDS011;4472;52.092;9.820;2023-04-06T12:15:44;10.43;;;7.57;;
8871;SDS011;4472;52.092;9.820;2023-04-06T12:18:31;10.23;;;8.13;;
8871;SDS011;4472;52.092;9.820;2023-04-06T12:21:18;11.67;;;8.73;;
8871;SDS011;4472;52.092;9.820;2023-04-06T12:24:05;8.57;;;7.67;;
8871;SDS011;4472;52.092;9.820;2023-04-06T12:26:53;9.93;;;8.33;;
8871;SDS011;4472;52.092;9.820;2023-04-06T12:29:41;10.17;;;8.20;;
8871;SDS011;4472;52.092;9.820;2023-04-06T12:32:30;9.97;;;7.73;;
8871;SDS011;4472;52.092;9.820;2023-04-06T12:35:17;9.47;;;8.43;;
8871;SDS011;4472;52.092;9.820;2023-04-06T12:38:04;8.93;;;7.50;;
8871;SDS011;4472;52.092;9.820;2023-04-06T12:40:52;10.67;;;7.93;;
8871;SDS011;4472;52.092;9.820;2023-04-06T12:43:39;10.50;;;7.10;;
8871;SDS011;4472;52.092;9.820;2023-04-06T12:46:27;11.60;;;8.00;;
8871;SDS011;4472;52.092;9.820;2023-04-06T12:49:17;9.07;;;7.50;;
8871;SDS011;4472;52.092;9.820;2023-04-06T12:52:05;9.07;;;7.73;;
8871;SDS011;4472;52.092;9.820;2023-04-06T12:54:52;10.93;;;8.00;;
8871;SDS011;4472;52.092;9.820;2023-04-06T12:57:39;9.97;;;8.40;;
8871;SDS011;4472;52.092;9.820;2023-04-06T13:00:27;10.83;;;8.43;;
8871;SDS011;4472;52.092;9.820;2023-04-06T13:03:14;10.00;;;7.77;;
8871;SDS011;4472;52.092;9.820;2023-04-06T13:06:02;9.23;;;7.70;;
8871;SDS011;4472;52.092;9.820;2023-04-06T13:08:50;10.67;;;8.10;;
8871;SDS011;4472;52.092;9.820;2023-04-06T13:11:37;9.17;;;7.80;;
8871;SDS011;4472;52.092;9.820;2023-04-06T13:14:26;10.37;;;7.50;;
8871;SDS011;4472;52.092;9.820;2023-04-06T13:17:13;8.77;;;7.40;;
8871;SDS011;4472;52.092;9.820;2023-04-06T13:20:02;10.17;;;7.40;;
8871;SDS011;4472;52.092;9.820;2023-04-06T13:22:52;10.13;;;7.67;;
8871;SDS011;4472;52.092;9.820;2023-04-06T13:25:40;8.00;;;7.03;;
8871;SDS011;4472;52.092;9.820;2023-04-06T13:28:27;10.57;;;7.53;;
8871;SDS011;4472;52.092;9.820;2023-04-06T13:31:15;7.60;;;6.63;;
8871;SDS011;4472;52.092;9.820;2023-04-06T13:34:02;9.57;;;7.70;;
8871;SDS011;4472;52.092;9.820;2023-04-06T13:36:49;9.23;;;7.70;;
8871;SDS011;4472;52.092;9.820;2023-04-06T13:39:38;10.40;;;7.50;;
8871;SDS011;4472;52.092;9.820;2023-04-06T13:42:26;11.07;;;7.97;;
8871;SDS011;4472;52.092;9.820;2023-04-06T13:45:14;9.10;;;7.33;;
8871;SDS011;4472;52.092;9.820;2023-04-06T13:48:01;9.43;;;7.80;;
8871;SDS011;4472;52.092;9.820;2023-04-06T13:50:48;10.27;;;7.70;;
8871;SDS011;4472;52.092;9.820;2023-04-06T13:53:36;7.77;;;6.93;;
8871;SDS011;4472;52.092;9.820;2023-04-06T13:56:24;11.00;;;7.70;;
8871;SDS011;4472;52.092;9.820;2023-04-06T13:59:11;9.57;;;7.57;;
8871;SDS011;4472;52.092;9.820;2023-04-06T14:01:58;8.73;;;7.37;;
8871;SDS011;4472;52.092;9.820;2023-04-06T14:04:45;10.43;;;7.70;;
8871;SDS011;4472;52.092;9.820;2023-04-06T14:07:33;9.17;;;7.13;;
8871;SDS011;4472;52.092;9.820;2023-04-06T14:10:20;10.47;;;7.73;;
8871;SDS011;4472;52.092;9.820;2023-04-06T14:13:10;10.27;;;7.80;;
8871;SDS011;4472;52.092;9.820;2023-04-06T14:15:57;10.10;;;7.97;;
8871;SDS011;4472;52.092;9.820;2023-04-06T14:18:44;13.23;;;7.77;;
8871;SDS011;4472;52.092;9.820;2023-04-06T14:21:31;10.33;;;7.40;;
8871;SDS011;4472;52.092;9.820;2023-04-06T14:24:19;11.70;;;8.63;;
8871;SDS011;4472;52.092;9.820;2023-04-06T14:27:07;10.13;;;7.70;;
8871;SDS011;4472;52.092;9.820;2023-04-06T14:29:55;10.50;;;7.77;;
8871;SDS011;4472;52.092;9.820;2023-04-06T14:32:42;11.13;;;8.43;;
8871;SDS011;4472;52.092;9.820;2023-04-06T14:35:29;10.73;;;8.00;;
8871;SDS011;4472;52.092;9.820;2023-04-06T14:38:17;10.60;;;8.10;;
8871;SDS011;4472;52.092;9.820;2023-04-06T14:41:04;11.17;;;7.87;;
8871;SDS011;4472;52.092;9.820;2023-04-06T14:43:52;9.20;;;7.70;;
8871;SDS011;4472;52.092;9.820;2023-04-06T14:46:40;10.33;;;8.00;;
8871;SDS011;4472;52.092;9.820;2023-04-06T14:49:27;10.10;;;7.87;;
8871;SDS011;4472;52.092;9.820;2023-04-06T14:52:14;10.17;;;7.73;;
8871;SDS011;4472;52.092;9.820;2023-04-06T14:55:02;9.87;;;7.53;;
8871;SDS011;4472;52.092;9.820;2023-04-06T14:57:49;9.30;;;7.50;;
8871;SDS011;4472;52.092;9.820;2023-04-06T15:00:37;9.60;;;8.37;;
8871;SDS011;4472;52.092;9.820;2023-04-06T15:03:26;13.27;;;8.47;;
8871;SDS011;4472;52.092;9.820;2023-04-06T15:06:14;10.40;;;7.63;;
8871;SDS011;4472;52.092;9.820;2023-04-06T15:09:01;11.20;;;8.07;;
8871;SDS011;4472;52.092;9.820;2023-04-06T15:11:49;10.17;;;8.00;;
8871;SDS011;4472;52.092;9.820;2023-04-06T15:14:36;12.33;;;8.93;;
8871;SDS011;4472;52.092;9.820;2023-04-06T15:17:23;9.13;;;7.07;;
8871;SDS011;4472;52.092;9.820;2023-04-06T15:20:13;9.00;;;7.30;;
8871;SDS011;4472;52.092;9.820;2023-04-06T15:23:00;9.83;;;7.37;;
8871;SDS011;4472;52.092;9.820;2023-04-06T15:25:48;7.90;;;7.10;;
8871;SDS011;4472;52.092;9.820;2023-04-06T15:28:36;8.90;;;7.40;;
8871;SDS011;4472;52.092;9.820;2023-04-06T15:31:23;10.53;;;7.33;;
8871;SDS011;4472;52.092;9.820;2023-04-06T15:34:10;11.00;;;7.77;;
8871;SDS011;4472;52.092;9.820;2023-04-06T15:36:59;10.30;;;7.27;;
8871;SDS011;4472;52.092;9.820;2023-04-06T15:39:49;11.43;;;7.60;;
8871;SDS011;4472;52.092;9.820;2023-04-06T15:42:39;8.30;;;6.70;;
8871;SDS011;4472;52.092;9.820;2023-04-06T15:45:28;8.97;;;6.23;;
8871;SDS011;4472;52.092;9.820;2023-04-06T15:48:15;8.60;;;7.17;;
8871;SDS011;4472;52.092;9.820;2023-04-06T15:51:03;9.27;;;6.63;;
8871;SDS011;4472;52.092;9.820;2023-04-06T15:53:52;10.40;;;7.13;;
8871;SDS011;4472;52.092;9.820;2023-04-06T15:56:39;8.10;;;6.67;;
8871;SDS011;4472;52.092;9.820;2023-04-06T15:59:26;8.73;;;7.20;;
8871;SDS011;4472;52.092;9.820;2023-04-06T16:02:13;11.83;;;7.50;;
8871;SDS011;4472;52.092;9.820;2023-04-06T16:05:00;10.03;;;8.20;;
8871;SDS011;4472;52.092;9.820;2023-04-06T16:07:48;10.80;;;7.90;;
8871;SDS011;4472;52.092;9.820;2023-04-06T16:10:37;18.07;;;8.43;;
8871;SDS011;4472;52.092;9.820;2023-04-06T16:13:24;10.80;;;7.50;;
8871;SDS011;4472;52.092;9.820;2023-04-06T16:16:11;8.97;;;7.30;;
8871;SDS011;4472;52.092;9.820;2023-04-06T16:22:40;8.33;;;6.80;;
8871;SDS011;4472;52.092;9.820;2023-04-06T16:25:28;8.83;;;7.03;;
8871;SDS011;4472;52.092;9.820;2023-04-06T16:28:17;7.53;;;6.60;;
8871;SDS011;4472;52.092;9.820;2023-04-06T16:31:04;7.97;;;6.60;;
8871;SDS011;4472;52.092;9.820;2023-04-06T16:33:52;8.10;;;6.97;;
8871;SDS011;4472;52.092;9.820;2023-04-06T16:36:42;11.40;;;8.07;;
8871;SDS011;4472;52.092;9.820;2023-04-06T16:39:29;11.77;;;7.77;;
8871;SDS011;4472;52.092;9.820;2023-04-06T16:42:16;11.17;;;8.13;;
8871;SDS011;4472;52.092;9.820;2023-04-06T16:45:06;11.37;;;8.57;;
8871;SDS011;4472;52.092;9.820;2023-04-06T16:47:54;14.37;;;8.97;;
8871;SDS011;4472;52.092;9.820;2023-04-06T16:50:41;12.83;;;9.03;;
8871;SDS011;4472;52.092;9.820;2023-04-06T16:53:28;12.30;;;8.03;;
8871;SDS011;4472;52.092;9.820;2023-04-06T16:56:15;10.60;;;6.60;;
8871;SDS011;4472;52.092;9.820;2023-04-06T16:59:05;9.43;;;6.13;;
8871;SDS011;4472;52.092;9.820;2023-04-06T17:01:54;7.17;;;5.77;;
8871;SDS011;4472;52.092;9.820;2023-04-06T17:04:41;7.13;;;5.80;;
8871;SDS011;4472;52.092;9.820;2023-04-06T17:07:29;8.50;;;5.97;;
8871;SDS011;4472;52.092;9.820;2023-04-06T17:10:16;7.33;;;5.17;;
8871;SDS011;4472;52.092;9.820;2023-04-06T17:13:03;7.00;;;5.77;;
8871;SDS011;4472;52.092;9.820;2023-04-06T17:15:51;8.13;;;5.23;;
8871;SDS011;4472;52.092;9.820;2023-04-06T17:18:39;7.00;;;5.83;;